createdAt,value
2023-04-21T00:03:42.912Z,7.80
2023-04-21T00:08:44.919Z,7.79
2023-04-21T00:13:46.648Z,7.76
2023-04-21T00:18:48.500Z,7.81
2023-04-21T00:23:50.640Z,7.89
2023-04-21T00:28:52.350Z,7.96
2023-04-21T00:33:54.112Z,7.97
2023-04-21T00:38:57.405Z,7.92
2023-04-21T00:44:07.554Z,7.85
2023-04-21T00:49:09.537Z,7.73
2023-04-21T00:54:12.196Z,7.64
2023-04-21T00:59:13.926Z,7.57
2023-04-21T01:04:16.282Z,7.52
2023-04-21T01:09:18.918Z,7.48
2023-04-21T01:14:20.913Z,7.40
2023-04-21T01:19:23.116Z,7.32
2023-04-21T01:24:25.378Z,7.24
2023-04-21T01:29:27.057Z,7.18
2023-04-21T01:34:29.159Z,7.07
2023-04-21T01:39:31.058Z,6.98
2023-04-21T01:44:32.852Z,6.93
2023-04-21T01:49:34.532Z,6.85
2023-04-21T01:54:36.572Z,6.75
2023-04-21T01:59:39.512Z,6.67
2023-04-21T02:04:41.436Z,6.62
2023-04-21T02:09:43.364Z,6.54
2023-04-21T02:14:47.468Z,6.60
2023-04-21T02:19:49.236Z,6.64
2023-04-21T02:24:50.913Z,6.66
2023-04-21T02:29:54.446Z,6.61
2023-04-21T02:34:56.433Z,6.60
2023-04-21T02:39:59.280Z,6.52
2023-04-21T02:45:01.124Z,6.55
2023-04-21T02:50:03.431Z,6.61
2023-04-21T02:55:07.522Z,6.62
2023-04-21T03:00:12.547Z,6.59
2023-04-21T03:05:14.413Z,6.57
2023-04-21T03:10:19.597Z,6.48
2023-04-21T03:15:22.776Z,6.41
2023-04-21T03:20:24.498Z,6.39
2023-04-21T03:25:27.883Z,6.37
2023-04-21T03:30:29.718Z,6.38
2023-04-21T03:35:31.658Z,6.32
2023-04-21T03:40:33.604Z,6.29
2023-04-21T03:45:38.315Z,6.26
2023-04-21T03:50:40.199Z,6.24
2023-04-21T03:55:41.887Z,6.29
2023-04-21T04:07:12.525Z,6.63
2023-04-21T04:12:14.214Z,7.04
2023-04-21T04:17:15.884Z,7.74
2023-04-21T04:22:17.614Z,8.78
2023-04-21T04:27:20.517Z,9.69
2023-04-21T04:32:22.243Z,10.54
2023-04-21T04:37:25.359Z,11.36
2023-04-21T04:42:27.210Z,12.01
2023-04-21T04:47:29.655Z,12.71
2023-04-21T04:52:31.715Z,13.15
2023-04-21T04:57:33.490Z,13.97
2023-04-21T05:02:35.771Z,14.97
2023-04-21T05:07:37.727Z,15.78
2023-04-21T05:12:39.514Z,16.47
2023-04-21T05:17:41.232Z,16.63
2023-04-21T05:22:42.946Z,15.28
2023-04-21T05:27:48.375Z,13.69
2023-04-21T05:32:50.796Z,13.35
2023-04-21T05:37:52.491Z,13.49
2023-04-21T05:42:54.245Z,13.65
2023-04-21T05:47:56.130Z,13.82
2023-04-21T05:52:57.810Z,13.98
2023-04-21T05:57:59.785Z,14.14
2023-04-21T06:03:01.871Z,14.36
2023-04-21T06:08:03.866Z,14.59
2023-04-21T06:13:05.568Z,14.86
2023-04-21T06:18:07.450Z,15.13
2023-04-21T06:23:09.780Z,15.18
2023-04-21T06:28:11.650Z,14.91
2023-04-21T06:33:13.391Z,14.66
2023-04-21T06:38:15.335Z,14.69
2023-04-21T06:43:17.112Z,15.03
2023-04-21T06:48:18.820Z,15.47
2023-04-21T06:53:21.739Z,15.65
2023-04-21T06:58:23.719Z,15.47
2023-04-21T07:03:25.634Z,15.23
2023-04-21T07:08:27.401Z,15.71
2023-04-21T07:13:29.129Z,16.15
2023-04-21T07:18:30.952Z,16.69
2023-04-21T07:23:32.667Z,16.63
2023-04-21T07:28:34.414Z,16.53
2023-04-21T07:33:36.238Z,16.84
2023-04-21T07:38:38.434Z,17.42
2023-04-21T07:43:40.816Z,18.04
2023-04-21T07:48:42.631Z,18.41
2023-04-21T07:53:44.350Z,18.44
2023-04-21T07:58:46.521Z,18.72
2023-04-21T08:03:48.773Z,19.18
2023-04-21T08:08:51.015Z,19.43
2023-04-21T08:13:52.915Z,19.57
2023-04-21T08:18:54.663Z,19.95
2023-04-21T08:23:56.483Z,20.52
2023-04-21T08:28:58.237Z,20.95
2023-04-21T08:34:02.982Z,20.95
2023-04-21T08:39:04.989Z,21.01
2023-04-21T08:44:06.997Z,21.08
2023-04-21T08:49:10.602Z,21.50
2023-04-21T08:54:12.533Z,21.81
2023-04-21T08:59:14.214Z,22.11
2023-04-21T09:04:18.071Z,23.08
2023-04-21T09:09:20.152Z,23.53
2023-04-21T09:14:22.076Z,22.96
2023-04-21T09:19:23.782Z,21.83
2023-04-21T09:24:25.526Z,21.14
2023-04-21T09:29:27.916Z,21.60
2023-04-21T09:34:30.301Z,21.94
2023-04-21T09:39:43.207Z,21.83
2023-04-21T09:44:58.127Z,22.27
2023-04-21T09:50:13.266Z,22.57
2023-04-21T09:55:16.465Z,23.03
2023-04-21T10:00:22.063Z,23.28
2023-04-21T10:05:24.273Z,23.26
2023-04-21T10:10:28.394Z,23.16
2023-04-21T10:15:38.247Z,23.08
2023-04-21T10:21:01.832Z,23.14
2023-04-21T10:26:07.097Z,23.17
2023-04-21T10:31:29.552Z,23.41
2023-04-21T10:36:32.969Z,23.93
2023-04-21T10:41:36.052Z,24.35
2023-04-21T10:46:45.339Z,23.25
2023-04-21T10:52:05.702Z,23.11
2023-04-21T10:57:09.037Z,23.35
2023-04-21T11:02:20.282Z,23.32
2023-04-21T11:07:23.820Z,23.09
2023-04-21T11:12:38.870Z,22.92
2023-04-21T11:17:43.369Z,22.90
2023-04-21T11:22:46.546Z,22.60
2023-04-21T11:28:00.272Z,21.95
2023-04-21T11:33:02.446Z,21.64
2023-04-21T11:38:07.057Z,21.46
2023-04-21T11:43:09.447Z,20.55
2023-04-21T11:48:18.103Z,20.12
2023-04-21T11:53:19.948Z,20.33
2023-04-21T11:58:22.160Z,20.87
2023-04-21T12:03:26.434Z,21.31
2023-04-21T12:08:31.913Z,21.73
2023-04-21T12:13:33.715Z,21.64
2023-04-21T12:18:36.806Z,21.60
2023-04-21T12:23:39.257Z,21.81
2023-04-21T12:28:41.004Z,22.24
2023-04-21T12:33:42.769Z,22.75
2023-04-21T12:38:44.836Z,23.25
2023-04-21T12:43:46.971Z,23.40
2023-04-21T12:48:48.936Z,23.32
2023-04-21T12:53:51.561Z,23.07
2023-04-21T12:58:53.543Z,22.32
2023-04-21T13:03:55.800Z,22.32
2023-04-21T13:08:57.643Z,22.36
2023-04-21T13:13:59.292Z,22.56
2023-04-21T13:19:01.121Z,23.42
2023-04-21T13:24:02.875Z,23.89
2023-04-21T13:29:04.607Z,23.75
2023-04-21T13:34:06.555Z,23.22
2023-04-21T13:39:11.446Z,22.41
2023-04-21T13:44:13.243Z,21.50
2023-04-21T13:49:15.346Z,21.37
2023-04-21T13:54:17.118Z,21.81
2023-04-21T13:59:21.148Z,21.89
2023-04-21T14:04:23.076Z,22.02
2023-04-21T14:09:25.359Z,22.04
2023-04-21T14:14:37.849Z,22.44
2023-04-21T14:19:40.213Z,22.93
2023-04-21T14:24:41.985Z,23.09
2023-04-21T14:29:43.719Z,22.64
2023-04-21T14:34:45.531Z,22.43
2023-04-21T14:39:47.228Z,22.36
2023-04-21T14:44:48.960Z,22.50
2023-04-21T14:49:55.113Z,22.57
2023-04-21T14:54:57.664Z,21.98
2023-04-21T14:59:59.411Z,20.93
2023-04-21T15:05:02.252Z,20.14
2023-04-21T15:10:04.621Z,19.66
2023-04-21T15:15:06.888Z,19.77
2023-04-21T15:20:10.594Z,20.72
2023-04-21T15:25:12.318Z,21.99
2023-04-21T15:30:14.699Z,23.03
2023-04-21T15:35:16.491Z,23.57
2023-04-21T15:40:18.318Z,23.61
2023-04-21T15:45:20.063Z,23.11
2023-04-21T15:50:22.225Z,22.22
2023-04-21T15:55:24.666Z,21.17
2023-04-21T16:00:26.821Z,20.10
2023-04-21T16:05:29.321Z,19.34
2023-04-21T16:10:31.257Z,19.12
2023-04-21T16:15:33.021Z,19.58
2023-04-21T16:20:36.867Z,20.17
2023-04-21T16:25:39.010Z,20.63
2023-04-21T16:30:43.522Z,20.99
2023-04-21T16:35:46.013Z,20.93
2023-04-21T16:40:47.937Z,20.22
2023-04-21T16:45:49.696Z,20.13
2023-04-21T16:50:53.883Z,20.15
2023-04-21T16:55:55.836Z,19.91
2023-04-21T17:00:57.600Z,19.44
2023-04-21T17:05:59.434Z,18.88
2023-04-21T17:11:01.137Z,18.42
2023-04-21T17:16:03.018Z,17.91
2023-04-21T17:21:06.202Z,17.45
2023-04-21T17:26:10.086Z,17.00
2023-04-21T17:31:16.138Z,16.58
2023-04-21T17:36:19.244Z,16.23
2023-04-21T17:41:21.611Z,15.86
2023-04-21T17:46:25.370Z,15.51
2023-04-21T17:51:28.760Z,15.19
2023-04-21T17:56:31.184Z,14.91
2023-04-21T18:01:32.959Z,14.69
2023-04-21T18:06:35.544Z,14.53
2023-04-21T18:11:38.415Z,14.37
2023-04-21T18:16:40.312Z,14.19
2023-04-21T18:21:42.245Z,13.99
2023-04-21T18:26:44.063Z,13.80
2023-04-21T18:31:46.022Z,13.57
2023-04-21T18:36:49.368Z,13.23
2023-04-21T18:41:52.028Z,12.85
2023-04-21T18:46:56.525Z,12.51
2023-04-21T18:51:58.411Z,12.18
2023-04-21T18:57:00.889Z,11.89
2023-04-21T19:02:04.040Z,11.68
2023-04-21T19:07:08.388Z,11.55
2023-04-21T19:12:10.278Z,11.43
2023-04-21T19:17:12.139Z,11.31
2023-04-21T19:22:13.947Z,11.08
2023-04-21T19:27:15.599Z,10.93
2023-04-21T19:32:17.355Z,10.77
2023-04-21T19:37:19.125Z,10.63
2023-04-21T19:42:20.793Z,10.56
2023-04-21T19:47:22.475Z,10.50
2023-04-21T19:52:24.250Z,10.52
2023-04-21T19:57:26.105Z,10.41
2023-04-21T20:02:28.556Z,10.16
2023-04-21T20:07:30.628Z,9.93
2023-04-21T20:12:32.905Z,9.79
2023-04-21T20:17:35.889Z,9.68
2023-04-21T20:22:37.715Z,9.74
2023-04-21T20:27:39.575Z,9.87
2023-04-21T20:32:41.224Z,9.94
2023-04-21T20:37:44.426Z,9.94
2023-04-21T20:42:46.131Z,9.78
2023-04-21T20:47:47.861Z,9.56
2023-04-21T20:52:52.639Z,9.37
2023-04-21T20:57:54.285Z,9.19
2023-04-21T21:02:56.135Z,9.03
2023-04-21T21:07:58.979Z,8.89
2023-04-21T21:13:01.438Z,8.80
2023-04-21T21:18:03.929Z,8.65
2023-04-21T21:23:06.332Z,8.48
2023-04-21T21:28:08.113Z,8.42
2023-04-21T21:33:10.068Z,8.71
2023-04-21T21:38:11.942Z,8.88
2023-04-21T21:43:16.164Z,9.00
2023-04-21T21:48:18.094Z,9.11
2023-04-21T21:53:21.317Z,9.20
2023-04-21T21:58:23.147Z,9.25
2023-04-21T22:03:25.079Z,9.24
2023-04-21T22:08:26.978Z,9.21
2023-04-21T22:13:28.724Z,9.21
2023-04-21T22:18:30.873Z,9.28
2023-04-21T22:23:32.671Z,9.33
2023-04-21T22:28:34.898Z,9.30
2023-04-21T22:33:37.289Z,9.28
2023-04-21T22:38:39.011Z,9.20
2023-04-21T22:43:40.810Z,9.18
2023-04-21T22:48:45.958Z,9.13
2023-04-21T22:53:47.848Z,9.02
2023-04-21T22:58:50.378Z,8.88
2023-04-21T23:03:52.297Z,8.78
2023-04-21T23:08:56.281Z,8.63
2023-04-21T23:14:09.809Z,8.44
2023-04-21T23:19:12.468Z,8.30
2023-04-21T23:24:14.483Z,8.27
2023-04-21T23:29:16.246Z,8.29
2023-04-21T23:34:17.961Z,8.35
2023-04-21T23:39:21.643Z,8.35
2023-04-21T23:44:24.570Z,8.30
2023-04-21T23:49:28.021Z,8.20
2023-04-21T23:54:29.774Z,8.06
2023-04-21T23:59:31.444Z,7.96
